createdAt,value
2023-01-18T00:00:47.689Z,32.65
2023-01-18T00:03:14.588Z,37.70
2023-01-18T00:05:41.950Z,47.78
2023-01-18T00:08:13.256Z,39.80
2023-01-18T00:10:40.368Z,35.22
2023-01-18T00:13:07.193Z,37.15
2023-01-18T00:15:37.061Z,42.30
2023-01-18T00:18:04.191Z,39.15
2023-01-18T00:20:31.706Z,45.35
2023-01-18T00:23:02.233Z,38.35
2023-01-18T00:25:29.981Z,37.25
2023-01-18T00:27:57.098Z,35.63
2023-01-18T00:30:27.239Z,38.88
2023-01-18T00:32:56.678Z,33.88
2023-01-18T00:35:24.469Z,41.38
2023-01-18T00:37:52.464Z,39.90
2023-01-18T00:40:20.337Z,35.00
2023-01-18T00:43:05.979Z,33.00
2023-01-18T00:45:32.748Z,34.30
2023-01-18T00:47:59.396Z,35.85
2023-01-18T00:50:26.081Z,36.45
2023-01-18T00:52:56.919Z,37.47
2023-01-18T00:55:24.102Z,40.80
2023-01-18T00:57:50.792Z,36.03
2023-01-18T01:00:19.750Z,35.22
2023-01-18T01:02:46.512Z,37.17
2023-01-18T01:05:40.961Z,38.30
2023-01-18T01:08:07.862Z,38.70
2023-01-18T01:10:35.159Z,43.40
2023-01-18T01:13:20.750Z,30.92
2023-01-18T01:16:05.866Z,35.83
2023-01-18T01:18:51.219Z,38.35
2023-01-18T01:21:36.415Z,36.45
2023-01-18T01:24:21.589Z,35.47
2023-01-18T01:26:48.187Z,33.72
2023-01-18T01:29:15.957Z,41.10
2023-01-18T01:31:42.716Z,35.55
2023-01-18T01:34:09.811Z,35.88
2023-01-18T01:36:36.494Z,40.15
2023-01-18T01:39:03.264Z,37.58
2023-01-18T01:41:32.794Z,37.13
2023-01-18T01:46:46.638Z,36.97
2023-01-18T01:49:19.690Z,39.45
2023-01-18T01:51:50.346Z,36.72
2023-01-18T01:54:23.653Z,37.58
2023-01-18T01:56:54.876Z,41.97
2023-01-18T01:59:22.050Z,34.17
2023-01-18T02:01:49.654Z,35.35
2023-01-18T02:04:16.525Z,38.30
2023-01-18T02:06:43.103Z,39.33
2023-01-18T02:09:16.077Z,39.20
2023-01-18T02:11:43.468Z,36.80
2023-01-18T02:14:15.665Z,32.03
2023-01-18T02:17:06.506Z,31.95
2023-01-18T02:19:45.080Z,43.92
2023-01-18T02:22:11.582Z,35.00
2023-01-18T02:25:12.234Z,36.45
2023-01-18T02:27:51.582Z,30.77
2023-01-18T02:30:31.901Z,27.98
2023-01-18T02:33:05.125Z,31.45
2023-01-18T02:35:56.119Z,31.23
2023-01-18T02:38:44.246Z,33.40
2023-01-18T02:41:45.459Z,31.90
2023-01-18T02:44:34.051Z,33.00
2023-01-18T02:47:01.109Z,38.23
2023-01-18T02:49:32.118Z,30.70
2023-01-18T02:52:07.297Z,33.45
2023-01-18T02:54:40.166Z,37.63
2023-01-18T02:57:13.509Z,31.45
2023-01-18T02:59:48.293Z,39.75
2023-01-18T03:02:17.023Z,29.38
2023-01-18T03:04:54.190Z,33.90
2023-01-18T03:07:26.868Z,34.35
2023-01-18T03:09:54.265Z,33.05
2023-01-18T03:12:46.088Z,35.10
2023-01-18T03:15:22.033Z,36.05
2023-01-18T03:17:53.179Z,33.65
2023-01-18T03:20:25.749Z,34.53
2023-01-18T03:23:22.911Z,33.95
2023-01-18T03:25:51.397Z,35.13
2023-01-18T03:28:51.909Z,25.98
2023-01-18T03:31:43.170Z,35.88
2023-01-18T03:34:38.391Z,37.65
2023-01-18T03:37:10.603Z,35.78
2023-01-18T03:39:42.785Z,38.70
2023-01-18T03:42:14.392Z,34.75
2023-01-18T03:45:03.736Z,32.75
2023-01-18T03:47:30.705Z,30.42
2023-01-18T03:49:58.139Z,31.92
2023-01-18T03:52:28.482Z,39.42
2023-01-18T03:55:03.465Z,39.75
2023-01-18T03:57:38.413Z,37.28
2023-01-18T04:00:07.314Z,40.45
2023-01-18T04:02:39.551Z,32.38
2023-01-18T04:05:07.121Z,37.15
2023-01-18T04:07:33.774Z,37.22
2023-01-18T04:10:00.705Z,32.40
2023-01-18T04:12:28.494Z,38.80
2023-01-18T04:14:55.080Z,32.95
2023-01-18T04:17:21.714Z,29.17
2023-01-18T04:19:48.242Z,31.60
2023-01-18T04:22:14.899Z,40.83
2023-01-18T04:24:41.450Z,35.05
2023-01-18T04:27:08.382Z,32.70
2023-01-18T04:29:35.131Z,32.03
2023-01-18T04:32:02.161Z,34.22
2023-01-18T04:34:28.705Z,32.75
2023-01-18T04:36:55.330Z,32.20
2023-01-18T04:39:21.853Z,26.15
2023-01-18T04:41:48.500Z,35.88
2023-01-18T04:44:16.165Z,30.55
2023-01-18T04:46:43.000Z,29.00
2023-01-18T04:49:15.648Z,31.25
2023-01-18T04:51:44.103Z,38.65
2023-01-18T04:54:12.344Z,26.92
2023-01-18T04:56:39.327Z,28.85
2023-01-18T04:59:05.956Z,34.53
2023-01-18T05:01:33.389Z,27.98
2023-01-18T05:04:00.106Z,26.73
2023-01-18T05:06:27.142Z,29.83
2023-01-18T05:08:53.729Z,35.72
2023-01-18T05:11:23.151Z,29.85
2023-01-18T05:16:19.631Z,30.75
2023-01-18T05:18:47.111Z,29.95
2023-01-18T05:21:14.282Z,30.67
2023-01-18T05:23:41.414Z,32.40
2023-01-18T05:26:14.692Z,30.95
2023-01-18T05:28:42.473Z,32.42
2023-01-18T05:31:09.613Z,32.85
2023-01-18T05:33:36.465Z,35.72
2023-01-18T05:36:03.465Z,37.85
2023-01-18T05:38:30.381Z,37.20
2023-01-18T05:40:57.401Z,29.85
2023-01-18T05:43:26.180Z,34.72
2023-01-18T05:45:53.975Z,36.75
2023-01-18T05:48:21.765Z,31.80
2023-01-18T05:50:49.127Z,29.05
2023-01-18T05:53:20.124Z,31.17
2023-01-18T05:56:01.150Z,32.53
2023-01-18T05:58:28.321Z,35.42
2023-01-18T06:00:55.543Z,27.50
2023-01-18T06:03:23.239Z,35.97
2023-01-18T06:05:51.416Z,27.13
2023-01-18T06:08:18.699Z,31.38
2023-01-18T06:10:53.314Z,31.48
2023-01-18T06:13:20.462Z,30.95
2023-01-18T06:15:49.545Z,31.83
2023-01-18T06:18:16.271Z,33.60
2023-01-18T06:20:43.232Z,38.65
2023-01-18T06:23:09.866Z,40.10
2023-01-18T06:25:37.230Z,36.72
2023-01-18T06:28:05.081Z,38.08
2023-01-18T06:30:33.549Z,37.92
2023-01-18T06:33:04.908Z,34.85
2023-01-18T06:35:31.485Z,37.08
2023-01-18T06:37:58.273Z,39.75
2023-01-18T06:40:25.028Z,32.50
2023-01-18T06:42:51.854Z,26.48
2023-01-18T06:45:21.950Z,29.50
2023-01-18T06:47:49.472Z,34.03
2023-01-18T06:50:16.568Z,28.15
2023-01-18T06:52:44.543Z,32.67
2023-01-18T06:55:13.200Z,27.15
2023-01-18T06:57:40.031Z,31.95
2023-01-18T07:00:08.366Z,33.35
2023-01-18T07:02:36.419Z,28.35
2023-01-18T07:05:03.896Z,34.00
2023-01-18T07:07:30.893Z,28.27
2023-01-18T07:09:57.647Z,31.98
2023-01-18T07:12:24.336Z,31.08
2023-01-18T07:14:51.169Z,31.48
2023-01-18T07:17:17.845Z,33.80
2023-01-18T07:19:44.799Z,35.13
2023-01-18T07:22:13.180Z,34.47
2023-01-18T07:24:39.835Z,45.08
2023-01-18T07:27:06.531Z,39.85
2023-01-18T07:29:33.229Z,35.55
2023-01-18T07:32:01.061Z,34.63
2023-01-18T07:34:27.797Z,35.55
2023-01-18T07:36:54.788Z,36.22
2023-01-18T07:39:21.408Z,33.63
2023-01-18T07:41:47.998Z,27.95
2023-01-18T07:44:17.547Z,41.65
2023-01-18T07:46:44.200Z,34.20
2023-01-18T07:49:10.965Z,34.78
2023-01-18T07:51:37.687Z,37.33
2023-01-18T07:54:04.328Z,33.28
2023-01-18T07:56:30.943Z,39.13
2023-01-18T07:58:57.559Z,34.72
2023-01-18T08:01:24.677Z,35.95
2023-01-18T08:03:53.521Z,37.80
2023-01-18T08:06:24.815Z,34.33
2023-01-18T08:08:52.231Z,32.25
2023-01-18T08:11:19.585Z,36.35
2023-01-18T08:13:48.890Z,36.95
2023-01-18T08:16:16.213Z,34.17
2023-01-18T08:18:45.153Z,40.75
2023-01-18T08:21:13.899Z,32.00
2023-01-18T08:23:41.084Z,26.73
2023-01-18T08:26:09.300Z,37.15
2023-01-18T08:28:36.127Z,37.97
2023-01-18T08:31:17.647Z,40.03
2023-01-18T08:33:46.928Z,35.60
2023-01-18T08:36:16.563Z,30.83
2023-01-18T08:38:43.408Z,39.33
2023-01-18T08:41:10.062Z,32.90
2023-01-18T08:43:36.846Z,40.10
2023-01-18T08:46:03.640Z,37.00
2023-01-18T08:48:30.334Z,36.22
2023-01-18T08:51:01.238Z,32.90
2023-01-18T08:53:29.486Z,35.08
2023-01-18T08:55:56.545Z,41.47
2023-01-18T08:58:23.143Z,35.20
2023-01-18T09:00:50.642Z,35.30
2023-01-18T09:03:25.834Z,33.90
2023-01-18T09:05:52.686Z,36.80
2023-01-18T09:08:19.245Z,40.70
2023-01-18T09:10:45.807Z,35.97
2023-01-18T09:13:12.540Z,31.17
2023-01-18T09:15:39.443Z,35.25
2023-01-18T09:18:08.079Z,43.15
2023-01-18T09:20:36.263Z,38.47
2023-01-18T09:23:07.767Z,33.95
2023-01-18T09:25:36.651Z,37.22
2023-01-18T09:28:05.095Z,44.20
2023-01-18T09:30:32.328Z,44.78
2023-01-18T09:32:59.533Z,46.58
2023-01-18T09:35:26.478Z,47.20
2023-01-18T09:37:55.184Z,44.92
2023-01-18T09:40:25.078Z,40.27
2023-01-18T09:42:52.718Z,46.45
2023-01-18T09:45:32.253Z,51.95
2023-01-18T09:50:45.161Z,42.70
2023-01-18T09:53:40.953Z,47.80
2023-01-18T09:56:09.763Z,47.17
2023-01-18T09:58:54.758Z,53.95
2023-01-18T10:01:27.305Z,53.95
2023-01-18T10:04:00.752Z,48.65
2023-01-18T10:06:32.483Z,52.83
2023-01-18T10:09:01.881Z,71.60
2023-01-18T10:11:36.512Z,52.10
2023-01-18T10:14:11.192Z,60.00
2023-01-18T10:16:38.056Z,56.50
2023-01-18T10:19:16.215Z,49.85
2023-01-18T10:22:19.540Z,52.40
2023-01-18T10:24:59.840Z,58.25
2023-01-18T10:27:41.542Z,52.25
2023-01-18T10:30:11.180Z,56.50
2023-01-18T10:32:39.045Z,56.58
2023-01-18T10:35:23.727Z,55.13
2023-01-18T10:37:52.319Z,51.17
2023-01-18T10:40:18.969Z,50.97
2023-01-18T10:42:48.373Z,62.55
2023-01-18T10:45:23.193Z,58.85
2023-01-18T10:47:51.949Z,63.80
2023-01-18T10:50:40.016Z,59.43
2023-01-18T10:53:31.557Z,52.38
2023-01-18T10:56:10.928Z,56.67
2023-01-18T10:59:00.389Z,50.15
2023-01-18T11:04:07.556Z,54.38
2023-01-18T11:06:53.699Z,53.70
2023-01-18T11:09:55.553Z,52.33
2023-01-18T11:12:41.036Z,50.92
2023-01-18T11:15:13.999Z,52.15
2023-01-18T11:18:00.260Z,48.85
2023-01-18T11:20:52.355Z,53.63
2023-01-18T11:23:23.194Z,50.83
2023-01-18T11:25:49.695Z,52.97
2023-01-18T11:28:24.020Z,47.42
2023-01-18T11:30:57.108Z,52.83
2023-01-18T11:33:26.225Z,48.88
2023-01-18T11:35:59.374Z,59.75
2023-01-18T11:38:28.651Z,52.58
2023-01-18T11:41:04.061Z,46.30
2023-01-18T11:43:33.480Z,47.42
2023-01-18T11:46:22.352Z,51.83
2023-01-18T11:49:00.619Z,46.83
2023-01-18T11:51:40.142Z,43.83
2023-01-18T11:56:56.160Z,44.00
2023-01-18T11:59:31.534Z,51.95
2023-01-18T12:02:16.860Z,43.03
2023-01-18T12:05:02.167Z,40.50
2023-01-18T12:07:34.813Z,41.20
2023-01-18T12:10:02.095Z,37.53
2023-01-18T12:12:31.619Z,42.17
2023-01-18T12:17:45.958Z,41.47
2023-01-18T12:20:24.611Z,36.40
2023-01-18T12:22:57.417Z,37.15
2023-01-18T12:25:24.050Z,33.47
2023-01-18T12:28:07.475Z,38.58
2023-01-18T12:31:02.967Z,36.60
2023-01-18T12:33:50.113Z,44.38
2023-01-18T12:36:22.153Z,35.08
2023-01-18T12:38:55.309Z,32.28
2023-01-18T12:41:31.547Z,30.25
2023-01-18T12:44:01.130Z,33.78
2023-01-18T12:49:11.351Z,27.50
2023-01-18T12:51:40.199Z,31.80
2023-01-18T12:54:31.269Z,35.10
2023-01-18T12:57:00.049Z,30.50
2023-01-18T12:59:40.897Z,25.75
2023-01-18T13:02:45.829Z,25.95
2023-01-18T13:05:33.877Z,26.85
2023-01-18T13:08:29.352Z,23.17
2023-01-18T13:11:05.388Z,26.38
2023-01-18T13:13:33.252Z,23.35
2023-01-18T13:16:19.887Z,22.77
2023-01-18T13:19:09.261Z,24.58
2023-01-18T13:21:48.229Z,26.35
2023-01-18T13:24:17.730Z,28.65
2023-01-18T13:26:44.467Z,27.25
2023-01-18T13:29:20.360Z,25.00
2023-01-18T13:31:46.902Z,26.48
2023-01-18T13:34:47.674Z,24.67
2023-01-18T13:37:42.971Z,23.33
2023-01-18T13:40:35.040Z,25.42
2023-01-18T13:43:01.959Z,26.52
2023-01-18T13:45:30.554Z,27.67
2023-01-18T13:48:07.484Z,28.17
2023-01-18T13:50:38.295Z,29.15
2023-01-18T13:53:14.250Z,22.15
2023-01-18T13:55:45.972Z,24.98
2023-01-18T13:58:29.434Z,23.85
2023-01-18T14:00:59.174Z,22.35
2023-01-18T14:03:29.557Z,24.17
2023-01-18T14:05:57.324Z,24.92
2023-01-18T14:08:32.521Z,25.30
2023-01-18T14:11:04.464Z,29.92
2023-01-18T14:13:51.346Z,27.63
2023-01-18T14:16:21.484Z,23.35
2023-01-18T14:18:55.794Z,23.52
2023-01-18T14:21:44.146Z,23.30
2023-01-18T14:24:27.168Z,23.17
2023-01-18T14:26:58.037Z,26.92
2023-01-18T14:29:48.793Z,30.27
2023-01-18T14:32:21.721Z,24.98
2023-01-18T14:35:16.909Z,30.90
2023-01-18T14:37:43.936Z,28.85
2023-01-18T14:40:16.700Z,25.20
2023-01-18T14:42:56.321Z,28.42
2023-01-18T14:45:30.501Z,29.65
2023-01-18T14:48:07.911Z,28.88
2023-01-18T14:50:38.646Z,28.83
2023-01-18T14:53:07.443Z,26.63
2023-01-18T14:55:35.156Z,22.88
2023-01-18T14:58:09.609Z,28.10
2023-01-18T15:00:46.740Z,28.63
2023-01-18T15:03:39.843Z,29.23
2023-01-18T15:06:16.104Z,28.45
2023-01-18T15:08:46.492Z,35.53
2023-01-18T15:11:14.205Z,29.05
2023-01-18T15:13:47.570Z,28.25
2023-01-18T15:16:20.903Z,26.77
2023-01-18T15:18:49.823Z,25.13
2023-01-18T15:21:27.456Z,23.38
2023-01-18T15:24:02.777Z,30.77
2023-01-18T15:26:44.408Z,32.28
2023-01-18T15:29:16.876Z,26.65
2023-01-18T15:32:12.379Z,29.02
2023-01-18T15:34:43.183Z,31.63
2023-01-18T15:37:16.377Z,34.63
2023-01-18T15:39:59.734Z,31.83
2023-01-18T15:42:38.628Z,33.40
2023-01-18T15:45:17.232Z,31.25
2023-01-18T15:47:50.194Z,27.53
2023-01-18T15:50:22.656Z,29.95
2023-01-18T15:53:01.885Z,37.30
2023-01-18T15:55:40.825Z,35.72
2023-01-18T15:58:14.224Z,28.10
2023-01-18T16:00:55.796Z,42.95
2023-01-18T16:03:35.831Z,31.85
2023-01-18T16:06:13.849Z,32.17
2023-01-18T16:09:00.747Z,36.45
2023-01-18T16:11:34.702Z,35.25
2023-01-18T16:14:07.577Z,39.60
2023-01-18T16:16:39.125Z,38.10
2023-01-18T16:19:30.805Z,32.08
2023-01-18T16:22:06.016Z,34.45
2023-01-18T16:24:37.740Z,38.33
2023-01-18T16:27:18.943Z,30.90
2023-01-18T16:29:48.206Z,33.30
2023-01-18T16:32:30.054Z,31.15
2023-01-18T16:35:20.997Z,29.20
2023-01-18T16:37:48.805Z,29.98
2023-01-18T16:40:21.696Z,28.83
2023-01-18T16:42:54.677Z,26.83
2023-01-18T16:45:21.576Z,32.53
2023-01-18T16:47:48.692Z,25.73
2023-01-18T16:50:16.951Z,32.25
2023-01-18T16:52:44.771Z,26.75
2023-01-18T16:55:16.529Z,23.40
2023-01-18T16:57:47.910Z,23.92
2023-01-18T17:00:25.906Z,26.90
2023-01-18T17:02:53.327Z,26.55
2023-01-18T17:05:20.746Z,24.33
2023-01-18T17:07:47.918Z,22.02
2023-01-18T17:10:39.241Z,25.88
2023-01-18T17:13:09.825Z,26.63
2023-01-18T17:15:40.749Z,23.63
2023-01-18T17:18:20.857Z,22.83
2023-01-18T17:20:59.914Z,24.55
2023-01-18T17:23:26.646Z,25.07
2023-01-18T17:25:53.600Z,24.83
2023-01-18T17:28:20.421Z,24.00
2023-01-18T17:30:49.326Z,24.20
2023-01-18T17:33:21.988Z,18.27
2023-01-18T17:35:53.586Z,22.52
2023-01-18T17:38:27.232Z,26.05
2023-01-18T17:40:55.919Z,25.50
2023-01-18T17:43:33.455Z,29.92
2023-01-18T17:46:05.624Z,22.58
2023-01-18T17:48:32.382Z,25.05
2023-01-18T17:50:59.151Z,27.25
2023-01-18T17:53:26.010Z,24.67
2023-01-18T17:55:52.735Z,23.90
2023-01-18T17:58:19.480Z,20.17
2023-01-18T18:00:46.247Z,25.02
2023-01-18T18:03:13.279Z,21.88
2023-01-18T18:05:40.315Z,24.45
2023-01-18T18:08:07.744Z,24.10
2023-01-18T18:10:34.285Z,27.67
2023-01-18T18:13:01.724Z,24.98
2023-01-18T18:15:28.716Z,25.92
2023-01-18T18:17:55.341Z,25.27
2023-01-18T18:20:23.016Z,30.70
2023-01-18T18:22:49.991Z,21.13
2023-01-18T18:25:17.036Z,28.00
2023-01-18T18:27:46.534Z,24.92
2023-01-18T18:30:15.236Z,25.83
2023-01-18T18:32:41.950Z,24.77
2023-01-18T18:35:24.375Z,27.77
2023-01-18T18:37:53.610Z,23.38
2023-01-18T18:40:20.483Z,25.05
2023-01-18T18:43:00.674Z,25.45
2023-01-18T18:45:31.018Z,22.35
2023-01-18T18:47:57.937Z,26.73
2023-01-18T18:50:24.475Z,24.98
2023-01-18T18:52:51.097Z,25.50
2023-01-18T18:55:18.433Z,26.50
2023-01-18T18:57:45.320Z,25.50
2023-01-18T19:00:12.924Z,30.77
2023-01-18T19:02:39.881Z,21.83
2023-01-18T19:05:06.897Z,30.10
2023-01-18T19:07:34.781Z,28.85
2023-01-18T19:10:01.369Z,25.75
2023-01-18T19:12:27.984Z,26.63
2023-01-18T19:14:54.548Z,24.80
2023-01-18T19:17:29.720Z,23.95
2023-01-18T19:19:57.605Z,22.30
2023-01-18T19:22:24.254Z,26.00
2023-01-18T19:24:51.106Z,25.50
2023-01-18T19:27:17.805Z,25.58
2023-01-18T19:29:44.538Z,26.75
2023-01-18T19:32:11.067Z,25.80
2023-01-18T19:34:41.006Z,24.77
2023-01-18T19:37:07.554Z,24.95
2023-01-18T19:39:36.947Z,27.10
2023-01-18T19:42:04.407Z,21.92
2023-01-18T19:44:31.109Z,20.38
2023-01-18T19:46:57.807Z,23.40
2023-01-18T19:49:25.643Z,23.77
2023-01-18T19:51:53.089Z,22.70
2023-01-18T19:54:20.162Z,23.88
2023-01-18T19:56:46.779Z,23.80
2023-01-18T19:59:14.972Z,19.02
2023-01-18T20:01:42.056Z,17.75
2023-01-18T20:04:08.976Z,22.52
2023-01-18T20:06:39.780Z,18.55
2023-01-18T20:09:17.821Z,25.60
2023-01-18T20:11:45.859Z,21.20
2023-01-18T20:14:12.524Z,22.85
2023-01-18T20:16:39.492Z,20.35
2023-01-18T20:19:06.221Z,18.35
2023-01-18T20:21:32.844Z,24.88
2023-01-18T20:23:59.541Z,24.25
2023-01-18T20:26:35.776Z,20.92
2023-01-18T20:29:07.524Z,24.10
2023-01-18T20:31:39.331Z,18.67
2023-01-18T20:34:06.705Z,24.02
2023-01-18T20:36:34.944Z,21.45
2023-01-18T20:39:02.440Z,22.05
2023-01-18T20:41:29.079Z,18.10
2023-01-18T20:43:55.812Z,18.05
2023-01-18T20:46:22.444Z,18.17
2023-01-18T20:48:49.576Z,17.55
2023-01-18T20:51:17.791Z,16.77
2023-01-18T20:53:44.383Z,16.52
2023-01-18T20:56:27.846Z,20.10
2023-01-18T20:58:56.999Z,15.82
2023-01-18T21:01:23.790Z,18.40
2023-01-18T21:03:55.128Z,13.57
2023-01-18T21:06:22.078Z,20.98
2023-01-18T21:08:52.415Z,16.30
2023-01-18T21:11:22.817Z,15.68
2023-01-18T21:13:50.473Z,18.92
2023-01-18T21:16:17.667Z,17.23
2023-01-18T21:18:44.332Z,14.10
2023-01-18T21:21:11.067Z,17.40
2023-01-18T21:23:40.507Z,14.80
2023-01-18T21:26:09.972Z,17.85
2023-01-18T21:28:37.146Z,14.90
2023-01-18T21:31:05.297Z,14.77
2023-01-18T21:33:32.532Z,12.77
2023-01-18T21:36:12.057Z,16.13
2023-01-18T21:41:23.814Z,16.33
2023-01-18T21:44:11.465Z,14.55
2023-01-18T21:46:43.914Z,17.20
2023-01-18T21:49:42.971Z,16.60
2023-01-18T21:52:35.670Z,15.10
2023-01-18T21:55:02.217Z,14.63
2023-01-18T21:57:28.747Z,15.88
2023-01-18T21:59:55.282Z,16.05
2023-01-18T22:02:22.487Z,13.07
2023-01-18T22:05:03.143Z,15.35
2023-01-18T22:07:32.921Z,13.18
2023-01-18T22:10:05.175Z,12.35
2023-01-18T22:12:34.909Z,16.67
2023-01-18T22:15:02.139Z,15.35
2023-01-18T22:17:28.970Z,15.10
2023-01-18T22:19:55.812Z,15.52
2023-01-18T22:22:22.346Z,15.07
2023-01-18T22:24:49.031Z,15.48
2023-01-18T22:27:15.611Z,13.35
2023-01-18T22:29:42.217Z,13.07
2023-01-18T22:32:08.879Z,15.40
2023-01-18T22:34:35.643Z,19.20
2023-01-18T22:37:03.229Z,15.77
2023-01-18T22:39:29.939Z,14.43
2023-01-18T22:41:56.599Z,16.42
2023-01-18T22:44:23.327Z,12.55
2023-01-18T22:46:49.936Z,15.18
2023-01-18T22:49:16.675Z,17.05
2023-01-18T22:51:43.678Z,16.92
2023-01-18T22:54:10.423Z,15.63
2023-01-18T22:56:37.016Z,19.45
2023-01-18T22:59:03.780Z,18.00
2023-01-18T23:01:32.600Z,13.40
2023-01-18T23:04:02.134Z,13.00
2023-01-18T23:06:42.273Z,16.10
2023-01-18T23:09:10.210Z,16.33
2023-01-18T23:11:37.623Z,13.80
2023-01-18T23:14:24.085Z,13.77
2023-01-18T23:17:09.648Z,21.48
2023-01-18T23:19:36.704Z,25.60
2023-01-18T23:22:06.978Z,16.88
2023-01-18T23:24:35.432Z,13.77
2023-01-18T23:27:03.232Z,16.27
2023-01-18T23:29:29.874Z,15.23
2023-01-18T23:31:58.257Z,16.77
2023-01-18T23:34:25.339Z,18.98
2023-01-18T23:36:52.164Z,14.73
2023-01-18T23:39:37.149Z,20.35
2023-01-18T23:42:22.487Z,15.32
2023-01-18T23:45:07.828Z,19.48
2023-01-18T23:47:53.841Z,15.40
2023-01-18T23:50:39.226Z,18.20
2023-01-18T23:53:24.581Z,18.98
2023-01-18T23:55:52.824Z,20.55
2023-01-18T23:58:19.447Z,16.02
